Time;durP1;ratioP1;P1;durP2;ratioP2;P2;SDS_P1;SDS_P2;PMS_P1;PMS_P2;Temp;Humidity;BMP_temperature;BMP_pressure;BME280_temperature;BME280_humidity;BME280_pressure;Samples;Min_cycle;Max_cycle;Signal;HPM_P1;HPM_P2
2022/09/17 00:01:16;;;;;;;4.45;1.52;;;;;;;24.67;78.55;99139.06;5043672;28;20212;-75
2022/09/17 00:03:48;;;;;;;3.63;1.80;;;;;;;24.64;79.95;99139.25;5009141;28;20195;-75
2022/09/17 00:06:15;;;;;;;2.38;1.70;;;;;;;24.49;80.99;99130.38;5044312;28;20235;-76
2022/09/17 00:08:41;;;;;;;2.90;1.65;;;;;;;24.46;84.44;99124.41;5045131;28;20309;-76
2022/09/17 00:11:10;;;;;;;3.13;1.98;;;;;;;24.55;88.10;99131.81;5044225;28;20195;-75
2022/09/17 00:13:36;;;;;;;3.00;1.88;;;;;;;24.41;89.17;99122.00;5044010;28;20204;-76
2022/09/17 00:16:03;;;;;;;5.28;2.15;;;;;;;24.34;90.33;99118.00;5043986;28;20226;-76
2022/09/17 00:18:30;;;;;;;1.70;1.60;;;;;;;24.21;91.56;99118.75;5044173;28;20200;-76
2022/09/17 00:20:59;;;;;;;3.72;1.90;;;;;;;24.15;91.78;99110.22;5044561;28;20207;-75
2022/09/17 00:23:26;;;;;;;5.88;1.77;;;;;;;23.98;91.03;99112.06;5043909;28;20200;-76
2022/09/17 00:25:52;;;;;;;3.75;1.50;;;;;;;23.90;91.18;99104.53;5047133;28;20199;-76
2022/09/17 00:28:19;;;;;;;2.55;1.67;;;;;;;23.90;90.68;99109.81;5045162;28;20199;-77
2022/09/17 00:30:46;;;;;;;5.32;1.63;;;;;;;23.89;88.94;99089.59;5043469;28;20200;-76
2022/09/17 00:33:15;;;;;;;3.13;1.60;;;;;;;23.90;88.46;99085.16;5044040;28;20203;-77
2022/09/17 00:35:42;;;;;;;4.35;1.58;;;;;;;23.90;88.34;99104.53;5044515;28;20622;-75
2022/09/17 00:38:11;;;;;;;3.90;1.60;;;;;;;23.96;86.67;99103.34;5024386;28;20208;-74
2022/09/17 00:40:38;;;;;;;5.28;2.38;;;;;;;23.71;86.59;99058.84;5043575;28;20199;-75
2022/09/17 00:43:11;;;;;;;1.55;1.30;;;;;;;24.14;85.06;99103.22;5043454;28;20238;-75
2022/09/17 00:45:38;;;;;;;1.85;1.35;;;;;;;24.03;84.82;99104.72;5043161;28;20310;-74
2022/09/17 00:48:06;;;;;;;4.30;1.33;;;;;;;24.07;83.90;99106.25;5044809;28;20645;-75
2022/09/17 00:50:36;;;;;;;5.15;1.80;;;;;;;24.04;83.56;99096.66;5015898;28;20630;-74
2022/09/17 00:53:06;;;;;;;4.43;1.63;;;;;;;24.13;83.62;99100.66;5050817;28;20699;-74
2022/09/17 00:55:37;;;;;;;4.35;1.40;;;;;;;24.18;82.99;99099.47;5050804;28;20223;-75
2022/09/17 00:58:07;;;;;;;2.50;1.35;;;;;;;24.08;84.35;99084.97;5048568;28;20207;-75
2022/09/17 01:00:34;;;;;;;2.30;1.70;;;;;;;24.07;83.29;99101.81;5043322;28;20210;-75
2022/09/17 01:03:04;;;;;;;1.83;1.38;;;;;;;24.21;82.94;99089.63;5042817;28;20207;-75
2022/09/17 01:05:37;;;;;;;3.20;1.50;;;;;;;24.18;83.67;99088.88;5042494;28;20207;-75
2022/09/17 01:08:11;;;;;;;7.18;2.13;;;;;;;24.17;83.60;99087.16;5042876;28;20204;-74
2022/09/17 01:10:55;;;;;;;4.05;1.90;;;;;;;24.23;82.68;99085.94;5007105;28;20201;-74
2022/09/17 01:13:34;;;;;;;6.68;2.13;;;;;;;24.24;83.59;99081.50;5042992;28;20276;-74
2022/09/17 01:16:06;;;;;;;2.70;1.52;;;;;;;24.08;84.18;99063.78;5023671;28;20607;-74
2022/09/17 01:18:47;;;;;;;4.50;1.55;;;;;;;24.24;83.44;99081.50;5043135;28;20195;-76
2022/09/17 01:21:39;;;;;;;3.13;1.70;;;;;;;24.29;82.89;99076.81;5042727;28;20265;-75
2022/09/17 01:24:32;;;;;;;2.50;1.95;;;;;;;24.29;82.99;99063.56;4999435;28;20200;-76
2022/09/17 01:27:31;;;;;;;2.38;1.65;;;;;;;24.35;82.89;99057.91;5000715;28;20208;-76
2022/09/17 01:30:18;;;;;;;3.45;1.90;;;;;;;24.31;81.91;99061.66;5000606;28;20205;-75
2022/09/17 01:32:52;;;;;;;5.28;1.80;;;;;;;24.32;82.51;99064.25;5000896;28;20204;-75
2022/09/17 01:35:30;;;;;;;4.20;1.90;;;;;;;24.26;82.64;99061.09;4998920;28;20251;-75
2022/09/17 01:38:04;;;;;;;6.70;1.90;;;;;;;24.15;84.47;99036.03;5003193;28;20247;-74
2022/09/17 01:40:40;;;;;;;1.85;1.42;;;;;;;24.37;86.67;99048.91;5002299;28;20192;-75
2022/09/17 01:43:16;;;;;;;2.65;2.00;;;;;;;24.44;85.87;99046.75;4951992;28;20767;-75
2022/09/17 01:45:49;;;;;;;3.95;1.90;;;;;;;24.48;85.25;99049.16;5000117;28;20699;-75
2022/09/17 01:48:18;;;;;;;4.93;2.30;;;;;;;24.42;84.63;99043.34;5000109;28;20262;-76
2022/09/17 01:50:51;;;;;;;2.95;1.80;;;;;;;24.60;83.10;99058.19;5001480;28;20204;-76
2022/09/17 01:53:22;;;;;;;3.35;2.20;;;;;;;24.34;100.00;99041.16;4972796;28;20201;-75
2022/09/17 01:55:51;;;;;;;4.60;2.38;;;;;;;24.27;100.00;99030.97;5001580;28;20717;-75
2022/09/17 01:58:23;;;;;;;2.15;2.00;;;;;;;24.20;100.00;99022.53;4941566;28;20886;-74
2022/09/17 02:00:55;;;;;;;6.45;2.33;;;;;;;24.09;100.00;99025.78;5014199;28;20207;-75
2022/09/17 02:03:29;;;;;;;2.53;2.13;;;;;;;24.07;100.00;99027.66;5042721;28;20196;-75
2022/09/17 02:06:00;;;;;;;2.42;2.22;;;;;;;23.97;100.00;99023.81;5041862;28;20206;-76
2022/09/17 02:08:31;;;;;;;4.57;1.83;;;;;;;23.89;100.00;99018.09;5043778;28;20762;-76
2022/09/17 02:11:03;;;;;;;7.28;2.30;;;;;;;23.44;100.00;98941.25;5041866;28;20269;-76
2022/09/17 02:13:36;;;;;;;2.60;1.90;;;;;;;23.75;100.00;98998.63;5042404;28;20208;-76
2022/09/17 02:16:07;;;;;;;2.75;1.80;;;;;;;23.79;100.00;99008.97;5042794;28;20626;-76
2022/09/17 02:18:40;;;;;;;5.53;2.20;;;;;;;23.73;100.00;98985.47;5043022;28;20200;-76
2022/09/17 02:21:14;;;;;;;2.88;2.00;;;;;;;23.84;100.00;98998.09;5043946;28;20195;-74
2022/09/17 02:23:52;;;;;;;6.82;1.85;;;;;;;23.86;100.00;99002.41;5050535;28;20199;-75
2022/09/17 02:26:21;;;;;;;4.45;1.90;;;;;;;23.88;100.00;98995.22;5033631;28;20231;-76
2022/09/17 02:28:51;;;;;;;3.03;1.80;;;;;;;23.70;100.00;99001.53;5041011;28;20283;-76
2022/09/17 02:31:18;;;;;;;5.50;2.28;;;;;;;23.52;100.00;98997.25;5053538;28;20235;-76
2022/09/17 02:33:50;;;;;;;11.88;2.22;;;;;;;23.58;100.00;98994.28;5012498;28;20779;-75
2022/09/17 02:36:17;;;;;;;4.95;2.28;;;;;;;23.54;100.00;98998.88;5046881;28;20219;-75
2022/09/17 02:38:45;;;;;;;3.38;2.20;;;;;;;23.68;100.00;99003.41;5047010;28;21284;-75
2022/09/17 02:41:16;;;;;;;2.90;2.10;;;;;;;23.75;100.00;99015.38;5046428;28;20258;-75
2022/09/17 02:43:55;;;;;;;8.52;2.30;;;;;;;23.80;100.00;99001.88;5045798;28;20207;-74
2022/09/17 02:46:41;;;;;;;4.15;2.15;;;;;;;23.73;100.00;98974.88;5046422;28;20703;-76
2022/09/17 02:49:29;;;;;;;3.13;2.30;;;;;;;23.89;100.00;98994.28;5048444;28;20261;-75
2022/09/17 02:52:04;;;;;;;4.30;2.33;;;;;;;23.88;100.00;98992.56;5048720;28;20254;-75
2022/09/17 02:54:39;;;;;;;4.95;2.08;;;;;;;23.84;100.00;98983.06;5048112;28;20192;-75
2022/09/17 02:57:17;;;;;;;2.85;2.30;;;;;;;23.71;100.00;98971.47;5048571;28;20219;-74
2022/09/17 02:59:51;;;;;;;6.78;1.90;;;;;;;23.66;100.00;98963.78;5045285;28;20712;-75
2022/09/17 03:02:24;;;;;;;4.47;2.25;;;;;;;23.51;100.00;98934.66;5045985;28;20206;-75
2022/09/17 03:04:52;;;;;;;2.53;2.28;;;;;;;23.34;100.00;98919.72;5044729;28;20204;-74
2022/09/17 03:07:20;;;;;;;5.47;2.50;;;;;;;23.39;100.00;98932.69;5026259;28;20196;-74
2022/09/17 03:09:46;;;;;;;2.40;2.05;;;;;;;23.21;100.00;98914.25;5045207;28;20256;-75
2022/09/17 03:12:14;;;;;;;5.95;2.70;;;;;;;23.37;100.00;98934.56;5045423;28;20202;-76
2022/09/17 03:14:41;;;;;;;3.03;2.10;;;;;;;23.27;100.00;98930.72;5045179;28;20215;-75
2022/09/17 03:17:07;;;;;;;3.97;2.28;;;;;;;23.23;100.00;98928.25;5045909;28;20237;-75
2022/09/17 03:19:34;;;;;;;4.68;2.38;;;;;;;23.13;100.00;98916.47;5044932;28;20211;-75
2022/09/17 03:22:02;;;;;;;6.90;2.95;;;;;;;23.23;100.00;98927.38;5045524;28;20265;-76
2022/09/17 03:24:30;;;;;;;6.65;2.30;;;;;;;23.11;100.00;98913.06;5044569;28;20203;-75
2022/09/17 03:26:56;;;;;;;13.93;2.72;;;;;;;23.09;100.00;98917.56;5028351;28;20723;-75
2022/09/17 03:29:23;;;;;;;5.00;2.33;;;;;;;23.05;100.00;98931.88;5047713;28;20210;-74
2022/09/17 03:31:50;;;;;;;6.10;2.40;;;;;;;23.05;100.00;98921.31;5045246;28;20211;-76
2022/09/17 03:34:17;;;;;;;5.85;2.85;;;;;;;22.93;100.00;98890.25;5045070;28;20310;-75
2022/09/17 03:36:44;;;;;;;10.10;2.72;;;;;;;22.79;100.00;98871.66;5044786;28;20310;-74
2022/09/17 03:39:12;;;;;;;7.10;1.95;;;;;;;22.92;100.00;98890.34;5045892;28;20212;-75
2022/09/17 03:41:39;;;;;;;6.65;2.35;;;;;;;22.88;100.00;98875.56;5045190;28;20265;-76
2022/09/17 03:44:06;;;;;;;2.80;1.88;;;;;;;22.82;100.00;98866.19;5026536;28;20685;-75
2022/09/17 03:46:32;;;;;;;8.60;2.38;;;;;;;22.87;100.00;98876.50;5044716;28;20237;-75
2022/09/17 03:48:59;;;;;;;2.47;2.17;;;;;;;22.92;100.00;98871.84;5044940;28;20211;-75
2022/09/17 03:51:26;;;;;;;7.25;2.25;;;;;;;22.88;100.00;98873.78;5046859;28;20257;-76
2022/09/17 03:53:53;;;;;;;3.50;2.08;;;;;;;22.86;100.00;98874.81;5046287;28;20639;-76
2022/09/17 03:56:21;;;;;;;5.93;2.47;;;;;;;22.84;100.00;98882.81;5047936;28;20695;-76
2022/09/17 03:58:47;;;;;;;7.75;3.25;;;;;;;22.65;100.00;98864.41;5046280;28;20214;-75
2022/09/17 04:01:15;;;;;;;4.25;2.33;;;;;;;22.75;100.00;98871.91;5009558;28;20199;-74
2022/09/17 04:03:42;;;;;;;7.95;2.47;;;;;;;22.70;100.00;98880.06;5043831;28;20188;-75
2022/09/17 04:06:08;;;;;;;4.82;2.30;;;;;;;22.65;100.00;98869.69;5044370;28;20670;-76
2022/09/17 04:08:35;;;;;;;5.25;2.17;;;;;;;22.92;100.00;98874.47;5044885;28;20242;-73
2022/09/17 04:11:02;;;;;;;7.35;2.05;;;;;;;23.17;98.77;98878.34;5044106;28;20218;-74
2022/09/17 04:13:30;;;;;;;6.63;1.98;;;;;;;23.45;94.17;98876.81;5044816;28;20219;-74
2022/09/17 04:15:57;;;;;;;3.67;1.90;;;;;;;23.54;92.09;98869.19;5044481;28;20232;-73
2022/09/17 04:18:23;;;;;;;3.78;2.00;;;;;;;23.68;90.03;98874.59;5024931;28;20218;-73
2022/09/17 04:20:50;;;;;;;3.88;1.77;;;;;;;23.82;89.06;98857.03;5024718;28;20191;-74
2022/09/17 04:23:17;;;;;;;6.05;1.65;;;;;;;23.97;87.55;98872.88;5044377;28;20253;-74
2022/09/17 04:25:44;;;;;;;3.03;1.50;;;;;;;24.12;85.68;98873.75;5046560;28;20211;-74
2022/09/17 04:28:11;;;;;;;5.40;2.40;;;;;;;24.19;85.78;98867.19;5046546;28;20628;-74
2022/09/17 04:30:40;;;;;;;3.35;1.88;;;;;;;24.23;85.02;98865.19;5043592;28;20203;-74
2022/09/17 04:33:06;;;;;;;2.72;2.03;;;;;;;24.18;84.96;98871.66;5043915;28;20252;-74
2022/09/17 04:35:33;;;;;;;7.18;2.00;;;;;;;24.29;83.97;98862.22;5043692;28;20254;-74
2022/09/17 04:38:00;;;;;;;8.32;2.00;;;;;;;24.43;83.00;98865.72;5043655;28;20223;-74
2022/09/17 04:40:27;;;;;;;3.83;2.00;;;;;;;24.59;83.35;98881.53;5043924;28;20268;-73
2022/09/17 04:42:54;;;;;;;5.43;2.13;;;;;;;24.50;88.29;98876.81;5008233;28;20554;-73
2022/09/17 04:45:21;;;;;;;7.07;2.08;;;;;;;24.42;85.88;98855.22;5043047;28;20711;-74
2022/09/17 04:47:49;;;;;;;5.55;2.53;;;;;;;24.72;89.01;98881.66;5043061;28;20207;-73
2022/09/17 04:50:17;;;;;;;2.80;2.40;;;;;;;24.60;94.13;98883.25;5046099;28;20272;-72
2022/09/17 04:52:44;;;;;;;3.05;2.38;;;;;;;24.37;98.38;98874.03;5044711;28;20196;-71
2022/09/17 04:55:11;;;;;;;3.95;2.17;;;;;;;24.51;99.56;98883.78;5045712;28;20196;-76
2022/09/17 04:57:38;;;;;;;10.75;2.50;;;;;;;24.59;100.00;98884.19;5046354;28;20323;-72
2022/09/17 05:00:06;;;;;;;8.73;2.08;;;;;;;24.75;99.45;98877.00;5044901;28;20249;-72
2022/09/17 05:02:33;;;;;;;5.53;2.17;;;;;;;24.72;98.45;98865.75;5050255;28;20199;-72
2022/09/17 05:05:01;;;;;;;8.95;2.63;;;;;;;24.78;100.00;98863.56;5050525;28;20207;-73
2022/09/17 05:07:28;;;;;;;12.70;2.40;;;;;;;24.74;99.46;98870.00;5049180;28;20245;-75
2022/09/17 05:09:55;;;;;;;6.15;2.95;;;;;;;24.49;100.00;98869.78;5050350;28;20671;-76
2022/09/17 05:12:21;;;;;;;3.40;2.17;;;;;;;24.38;100.00;98857.19;5050474;28;20561;-72
2022/09/17 05:14:48;;;;;;;8.65;2.92;;;;;;;24.19;100.00;98857.44;5005263;28;20208;-73
2022/09/17 05:17:15;;;;;;;7.82;2.55;;;;;;;24.23;100.00;98857.25;5046332;28;20234;-72
2022/09/17 05:19:42;;;;;;;7.40;2.10;;;;;;;24.15;100.00;98855.09;5013758;28;20207;-73
2022/09/17 05:22:10;;;;;;;5.38;2.60;;;;;;;24.33;100.00;98848.66;5047751;28;20211;-74
2022/09/17 05:24:38;;;;;;;5.38;2.53;;;;;;;24.47;99.11;98871.69;5049279;28;20655;-73
2022/09/17 05:27:05;;;;;;;7.25;2.45;;;;;;;24.54;97.31;98873.84;5050253;28;20295;-73
2022/09/17 05:29:32;;;;;;;4.13;2.35;;;;;;;24.84;92.40;98860.53;5050028;28;20562;-73
2022/09/17 05:31:59;;;;;;;6.20;2.00;;;;;;;24.91;87.34;98866.31;5039626;28;20282;-73
2022/09/17 05:34:25;;;;;;;7.70;2.63;;;;;;;25.17;86.31;98869.03;5046400;28;20210;-72
2022/09/17 05:36:52;;;;;;;4.93;2.72;;;;;;;24.95;92.00;98850.13;5029961;28;20223;-70
2022/09/17 05:39:24;;;;;;;7.32;2.90;;;;;;;24.64;100.00;98863.56;5049473;28;20192;-71
2022/09/17 05:41:51;;;;;;;13.20;3.72;;;;;;;24.54;100.00;98878.31;5049155;28;20663;-72
2022/09/17 05:44:17;;;;;;;5.25;3.22;;;;;;;24.54;100.00;98878.31;5049229;28;20207;-72
2022/09/17 05:46:44;;;;;;;6.57;3.17;;;;;;;24.66;100.00;98882.84;5047495;28;21301;-73
2022/09/17 05:49:11;;;;;;;143.13;75.47;;;;;;;24.67;100.00;98884.56;5037330;28;20286;-72
2022/09/17 05:51:38;;;;;;;9.88;5.60;;;;;;;24.65;100.00;98886.44;5046949;28;20211;-75
2022/09/17 05:54:05;;;;;;;3.60;3.28;;;;;;;24.72;100.00;98866.59;5048892;28;20203;-74
2022/09/17 05:56:33;;;;;;;8.40;3.47;;;;;;;25.00;100.00;98879.88;5049736;28;20223;-75
2022/09/17 05:59:00;;;;;;;7.22;4.10;;;;;;;24.89;100.00;98870.88;5053140;28;20203;-74
2022/09/17 06:01:27;;;;;;;7.65;3.40;;;;;;;24.47;100.00;98834.59;5053475;28;20704;-74
2022/09/17 06:03:54;;;;;;;8.10;4.00;;;;;;;24.44;100.00;98832.09;5039065;28;20200;-75
2022/09/17 06:06:21;;;;;;;3.50;3.10;;;;;;;24.62;100.00;98866.28;5053104;28;20227;-74
2022/09/17 06:08:48;;;;;;;13.02;4.00;;;;;;;24.70;100.00;98857.88;5053098;28;20737;-74
2022/09/17 06:11:15;;;;;;;9.30;3.72;;;;;;;24.62;100.00;98868.94;5052986;28;20207;-74
2022/09/17 06:13:43;;;;;;;7.38;3.90;;;;;;;24.42;100.00;98873.75;5017693;28;20265;-74
2022/09/17 06:16:10;;;;;;;14.93;4.47;;;;;;;24.23;100.00;98879.31;5052962;28;20291;-75
2022/09/17 06:18:36;;;;;;;12.85;4.45;;;;;;;24.04;100.00;98862.78;5021194;28;20269;-74
2022/09/17 06:21:04;;;;;;;10.00;4.50;;;;;;;24.29;100.00;98875.44;5052265;28;20211;-74
2022/09/17 06:23:33;;;;;;;11.50;5.13;;;;;;;24.18;100.00;98849.59;5052687;28;20298;-74
2022/09/17 06:26:01;;;;;;;7.10;3.92;;;;;;;24.23;100.00;98857.25;5017945;28;20207;-73
2022/09/17 06:28:28;;;;;;;9.80;3.80;;;;;;;24.21;100.00;98861.81;5052455;28;20257;-74
2022/09/17 06:31:00;;;;;;;7.68;3.50;;;;;;;24.40;100.00;98865.06;5052594;28;20708;-73
2022/09/17 06:33:27;;;;;;;5.55;3.70;;;;;;;24.37;100.00;98849.31;5052364;28;20663;-73
2022/09/17 06:35:56;;;;;;;8.80;3.47;;;;;;;24.33;100.00;98871.69;5018108;28;20241;-73
2022/09/17 06:38:23;;;;;;;16.48;5.00;;;;;;;24.15;100.00;98902.78;5033709;28;20231;-74
2022/09/17 06:40:51;;;;;;;9.05;5.60;;;;;;;24.18;100.00;98899.94;5052893;28;20269;-75
2022/09/17 06:43:18;;;;;;;9.98;5.20;;;;;;;24.25;100.00;98903.06;5052043;28;20290;-74
2022/09/17 06:45:44;;;;;;;14.80;6.55;;;;;;;24.30;100.00;98898.31;5017541;28;20231;-74
2022/09/17 06:48:13;;;;;;;17.50;5.95;;;;;;;24.48;100.00;98895.44;5052910;28;20292;-74
2022/09/17 06:50:39;;;;;;;18.75;6.93;;;;;;;24.37;100.00;98889.06;5052387;28;20265;-75
2022/09/17 06:53:06;;;;;;;18.50;7.07;;;;;;;24.40;100.00;98886.25;5052047;28;20199;-73
2022/09/17 06:55:34;;;;;;;24.70;8.35;;;;;;;24.64;100.00;98913.91;5052804;28;20230;-74
2022/09/17 06:58:00;;;;;;;17.75;8.15;;;;;;;24.58;100.00;98928.38;5052613;28;20659;-74
2022/09/17 07:00:27;;;;;;;15.43;6.22;;;;;;;24.22;100.00;98900.59;5052487;28;20188;-73
2022/09/17 07:02:58;;;;;;;10.27;6.20;;;;;;;23.97;100.00;98859.63;5052095;28;20211;-73
2022/09/17 07:05:27;;;;;;;15.48;6.40;;;;;;;24.57;100.00;98947.91;5051844;28;20207;-73
2022/09/17 07:07:55;;;;;;;11.80;6.15;;;;;;;24.67;100.00;98942.91;5052039;28;20242;-73
2022/09/17 07:10:23;;;;;;;18.20;7.65;;;;;;;24.83;100.00;98919.81;5051755;28;20208;-74
2022/09/17 07:12:49;;;;;;;17.08;6.78;;;;;;;24.89;100.00;98914.16;5051781;28;20302;-75
2022/09/17 07:15:16;;;;;;;56.70;24.70;;;;;;;25.18;100.00;98917.66;5046765;28;20748;-72
2022/09/17 07:17:44;;;;;;;266.50;145.40;;;;;;;25.48;100.00;98902.41;5051264;28;20625;-74
2022/09/17 07:20:11;;;;;;;13.98;6.95;;;;;;;25.84;100.00;98907.16;5052502;28;20225;-74
2022/09/17 07:22:39;;;;;;;11.40;4.72;;;;;;;25.87;94.84;98901.63;5052020;28;20211;-75
2022/09/17 07:25:07;;;;;;;5.65;3.10;;;;;;;25.94;89.76;98902.94;5051956;28;20202;-74
2022/09/17 07:27:34;;;;;;;6.30;2.60;;;;;;;25.93;84.35;98889.75;5052125;28;20261;-74
2022/09/17 07:30:01;;;;;;;5.68;2.50;;;;;;;26.18;80.80;98889.00;5052595;28;20204;-74
2022/09/17 07:32:30;;;;;;;6.25;2.42;;;;;;;26.49;80.28;98892.13;5051909;28;20196;-74
2022/09/17 07:34:56;;;;;;;3.67;1.83;;;;;;;26.55;77.05;98896.16;5019009;28;20303;-74
2022/09/17 07:37:23;;;;;;;12.05;2.65;;;;;;;26.76;74.40;98896.44;5051529;28;20660;-73
2022/09/17 07:39:51;;;;;;;6.68;2.05;;;;;;;27.07;73.08;98899.56;5051802;28;20264;-73
2022/09/17 07:42:18;;;;;;;3.75;2.17;;;;;;;27.04;70.87;98899.75;5051852;28;20211;-73
2022/09/17 07:44:45;;;;;;;10.77;2.35;;;;;;;27.29;70.36;98896.19;5051412;28;20211;-73
2022/09/17 07:47:12;;;;;;;7.38;2.25;;;;;;;27.56;69.36;98888.06;5051798;28;20261;-73
2022/09/17 07:49:39;;;;;;;4.53;1.90;;;;;;;27.93;67.67;98896.84;5051654;28;20203;-73
2022/09/17 07:52:08;;;;;;;9.18;2.75;;;;;;;28.30;65.16;98889.59;5016489;28;20628;-73
2022/09/17 07:54:36;;;;;;;12.13;2.25;;;;;;;28.63;63.77;98889.66;5051415;28;20199;-74
2022/09/17 07:57:05;;;;;;;5.72;2.05;;;;;;;29.26;63.18;98898.91;5051635;28;20687;-73
2022/09/17 07:59:32;;;;;;;3.47;1.95;;;;;;;29.53;62.63;98899.38;5051700;28;20219;-74
2022/09/17 08:01:59;;;;;;;9.80;2.70;;;;;;;29.67;60.55;98909.78;5051298;28;20207;-74
2022/09/17 08:04:25;;;;;;;7.47;2.47;;;;;;;28.99;60.25;98861.94;5014889;28;20210;-74
2022/09/17 08:06:52;;;;;;;3.15;1.90;;;;;;;29.13;59.14;98932.91;5050892;28;20207;-74
2022/09/17 08:09:19;;;;;;;5.30;2.40;;;;;;;29.18;58.10;98920.88;5050884;28;20207;-74
2022/09/17 08:11:46;;;;;;;4.63;1.48;;;;;;;29.24;56.29;98940.91;5050972;28;20667;-73
2022/09/17 08:14:15;;;;;;;6.75;1.85;;;;;;;29.55;55.14;98929.50;5051540;28;20204;-74
2022/09/17 08:16:44;;;;;;;3.17;2.40;;;;;;;29.34;56.49;98931.22;5051171;28;20204;-73
2022/09/17 08:19:11;;;;;;;6.68;2.00;;;;;;;29.11;56.35;98918.84;5050636;28;20227;-73
2022/09/17 08:21:37;;;;;;;8.13;1.92;;;;;;;29.29;55.66;98912.88;5015544;28;20203;-73
2022/09/17 08:24:05;;;;;;;4.93;1.90;;;;;;;29.52;55.35;98909.22;5050480;28;20210;-73
2022/09/17 08:26:32;;;;;;;3.90;2.03;;;;;;;29.36;52.99;98897.25;5050400;28;20639;-72
2022/09/17 08:28:58;;;;;;;4.65;2.03;;;;;;;29.37;53.80;98929.16;5015487;28;20203;-73
2022/09/17 08:31:28;;;;;;;8.77;2.20;;;;;;;29.30;53.97;98929.75;5050331;28;20211;-72
2022/09/17 08:33:56;;;;;;;2.33;1.45;;;;;;;28.72;54.75;98899.63;5050790;28;20854;-73
2022/09/17 08:36:24;;;;;;;7.35;1.80;;;;;;;28.91;53.90;98917.72;5050400;28;20200;-72
2022/09/17 08:38:53;;;;;;;6.50;1.80;;;;;;;29.05;54.35;98894.31;5050890;28;20318;-71
2022/09/17 08:41:33;;;;;;;4.22;1.65;;;;;;;29.14;55.49;98871.38;5050453;28;20606;-72
2022/09/17 08:44:15;;;;;;;4.97;1.98;;;;;;;29.15;55.55;98904.25;5050558;28;20239;-72
2022/09/17 08:46:47;;;;;;;4.63;1.73;;;;;;;29.01;57.05;98906.19;5032068;28;20231;-72
2022/09/17 08:49:25;;;;;;;4.10;1.70;;;;;;;29.24;57.08;98915.06;5050821;28;20210;-72
2022/09/17 08:52:17;;;;;;;3.65;1.80;;;;;;;28.98;56.63;98897.59;5045661;28;20215;-74
2022/09/17 08:54:54;;;;;;;6.65;1.77;;;;;;;28.98;57.79;98929.63;5044209;28;20210;-74
2022/09/17 08:57:29;;;;;;;7.80;2.10;;;;;;;28.63;59.38;98935.00;5050691;28;20231;-74
2022/09/17 09:00:01;;;;;;;7.00;1.90;;;;;;;29.19;58.25;98935.06;5049816;28;20207;-73
2022/09/17 09:02:57;;;;;;;4.05;1.77;;;;;;;28.94;59.11;98921.00;5050334;28;20191;-74
2022/09/17 09:05:29;;;;;;;3.15;1.80;;;;;;;29.22;57.87;98927.66;5050099;28;20628;-74
2022/09/17 09:08:02;;;;;;;1.75;1.60;;;;;;;28.90;58.51;98921.34;5050333;28;20310;-75
2022/09/17 09:10:32;;;;;;;2.60;1.75;;;;;;;28.85;58.53;98935.09;5050530;28;20199;-75
2022/09/17 09:13:01;;;;;;;2.97;1.67;;;;;;;28.73;58.42;98928.03;5049857;28;20225;-74
2022/09/17 09:15:35;;;;;;;3.72;1.70;;;;;;;28.75;58.16;98923.44;5021400;28;20218;-74
2022/09/17 09:18:13;;;;;;;7.28;1.60;;;;;;;28.72;57.69;98920.97;5036206;28;20230;-75
2022/09/17 09:20:48;;;;;;;5.50;2.00;;;;;;;28.57;58.51;98896.31;5014620;28;20314;-74
2022/09/17 09:23:19;;;;;;;4.18;1.48;;;;;;;28.65;57.46;98924.19;5048528;28;20199;-75
2022/09/17 09:25:54;;;;;;;2.90;1.60;;;;;;;28.39;57.46;98884.41;5049964;28;20199;-75
2022/09/17 09:28:34;;;;;;;3.00;1.50;;;;;;;28.62;56.97;98927.97;5050327;28;20782;-74
2022/09/17 09:31:15;;;;;;;4.68;1.45;;;;;;;28.47;57.77;98940.66;5046693;28;20814;-76
2022/09/17 09:33:45;;;;;;;21.42;8.85;;;;;;;28.67;57.71;98917.84;5051684;28;20203;-76
2022/09/17 09:36:15;;;;;;;4.38;1.80;;;;;;;28.86;57.09;98927.94;5053491;28;20203;-73
2022/09/17 09:38:48;;;;;;;4.15;1.40;;;;;;;28.94;57.13;98926.34;5053548;28;20238;-76
2022/09/17 09:41:19;;;;;;;3.15;1.58;;;;;;;29.29;56.15;98941.41;5050259;28;20563;-76
2022/09/17 09:43:48;;;;;;;4.63;1.35;;;;;;;29.03;56.08;98936.31;5074025;28;20211;-72
2022/09/17 09:46:49;;;;;;;1.70;1.58;;;;;;;28.84;55.39;98895.16;5054514;28;20639;-74
2022/09/17 09:49:29;;;;;;;2.30;2.10;;;;;;;28.87;56.17;98925.13;5048588;28;20945;-74
2022/09/17 09:52:10;;;;;;;2.38;1.25;;;;;;;28.58;55.90;98932.69;5073709;28;20202;-75
2022/09/17 09:54:52;;;;;;;11.90;1.35;;;;;;;28.29;57.12;98931.41;5053164;28;20207;-76
2022/09/17 09:57:25;;;;;;;1.58;1.42;;;;;;;28.10;58.35;98946.25;5059229;28;20294;-75
2022/09/17 10:00:23;;;;;;;2.55;1.52;;;;;;;27.98;58.56;98956.81;5051412;28;20660;-72
2022/09/17 10:02:54;;;;;;;7.07;1.42;;;;;;;27.98;59.10;98940.81;5048233;28;20280;-73
2022/09/17 10:05:23;;;;;;;1.27;1.20;;;;;;;27.97;58.96;98940.91;5053353;28;20208;-72
2022/09/17 10:07:51;;;;;;;6.07;1.38;;;;;;;27.61;60.75;98955.16;5050898;28;20214;-71
2022/09/17 10:10:18;;;;;;;2.60;1.40;;;;;;;27.61;61.60;98947.19;5052465;28;20215;-72
2022/09/17 10:12:44;;;;;;;2.25;1.63;;;;;;;27.50;63.05;98944.44;5051835;28;20298;-72
2022/09/17 10:15:26;;;;;;;4.93;1.65;;;;;;;27.69;62.90;98958.09;5061493;28;20221;-72
2022/09/17 10:18:25;;;;;;;1.25;1.10;;;;;;;27.65;63.35;98956.63;5045147;28;20231;-72
2022/09/17 10:20:57;;;;;;;4.25;1.60;;;;;;;27.75;64.05;98963.00;5042627;28;21367;-72
2022/09/17 10:23:27;;;;;;;5.10;1.80;;;;;;;27.57;65.43;98959.00;5046153;28;20676;-73
2022/09/17 10:25:55;;;;;;;4.18;2.58;;;;;;;27.33;67.19;98966.03;5047774;28;20207;-73
2022/09/17 10:28:39;;;;;;;5.45;2.95;;;;;;;27.43;67.79;98967.09;5052330;28;20632;-74
2022/09/17 10:31:09;;;;;;;6.75;1.50;;;;;;;27.65;68.45;98979.75;5048715;28;20223;-73
2022/09/17 10:33:39;;;;;;;4.38;1.67;;;;;;;27.64;68.34;98960.25;5049199;28;20289;-73
2022/09/17 10:36:12;;;;;;;5.97;2.42;;;;;;;27.80;69.50;98976.81;5052433;28;20611;-73
2022/09/17 10:38:40;;;;;;;7.10;2.03;;;;;;;27.53;72.47;98968.19;5048837;28;20301;-72
2022/09/17 10:41:21;;;;;;;5.75;2.60;;;;;;;27.84;72.34;98990.75;5050609;28;20207;-73
2022/09/17 10:43:48;;;;;;;9.27;3.17;;;;;;;28.17;69.58;98990.13;5049785;28;20667;-73
2022/09/17 10:46:19;;;;;;;16.05;3.60;;;;;;;28.14;69.68;98991.22;5050834;28;20310;-73
2022/09/17 10:48:57;;;;;;;8.15;3.35;;;;;;;28.23;69.08;98977.19;5054516;28;20214;-73
2022/09/17 10:51:26;;;;;;;4.70;2.83;;;;;;;28.48;67.74;99001.06;5061725;28;20777;-74
2022/09/17 10:54:31;;;;;;;13.75;3.65;;;;;;;28.39;68.53;99000.91;5056947;28;20284;-73
2022/09/17 10:56:59;;;;;;;11.75;4.53;;;;;;;28.11;70.32;98998.59;5028373;28;20208;-74
2022/09/17 10:59:53;;;;;;;3.55;2.75;;;;;;;27.67;71.86;99007.13;5005194;28;20232;-74
2022/09/17 11:03:16;;;;;;;7.30;3.70;;;;;;;27.44;74.83;99017.56;4929907;29;20353;-73
2022/09/17 11:06:04;;;;;;;9.93;3.35;;;;;;;27.24;76.68;99025.25;4874558;29;20213;-73
2022/09/17 11:08:39;;;;;;;9.27;3.40;;;;;;;26.89;78.86;99012.59;4830066;29;20289;-73
2022/09/17 11:11:11;;;;;;;7.32;3.97;;;;;;;26.94;81.05;99047.72;4877009;29;20201;-73
2022/09/17 11:13:46;;;;;;;10.73;3.78;;;;;;;26.87;82.24;99058.88;4875786;29;20293;-76
2022/09/17 11:16:31;;;;;;;9.57;3.72;;;;;;;26.74;81.93;99061.50;4877987;29;20702;-74
2022/09/17 11:19:11;;;;;;;3.92;3.00;;;;;;;26.72;82.79;99089.16;4876563;29;20977;-74
2022/09/17 11:21:45;;;;;;;12.32;3.83;;;;;;;26.13;86.62;99099.19;4866554;29;20227;-75
2022/09/17 11:24:34;;;;;;;10.20;3.20;;;;;;;25.95;90.54;99089.72;4876520;29;20209;-76
2022/09/17 11:27:12;;;;;;;12.00;3.30;;;;;;;25.80;95.45;99104.84;4841775;29;20206;-74
2022/09/17 11:30:01;;;;;;;5.68;3.47;;;;;;;25.87;99.01;99100.84;4877731;29;20240;-73
2022/09/17 11:32:48;;;;;;;4.28;3.28;;;;;;;26.11;100.00;99115.22;4876265;29;20212;-74
2022/09/17 11:35:20;;;;;;;9.63;3.58;;;;;;;26.38;99.74;99115.28;4922299;29;20211;-74
2022/09/17 11:37:53;;;;;;;11.45;3.90;;;;;;;26.15;100.00;99078.69;4934032;29;20223;-72
2022/09/17 11:40:29;;;;;;;7.88;3.30;;;;;;;26.33;100.00;99113.88;5029121;28;20588;-75
2022/09/17 11:43:02;;;;;;;10.43;3.55;;;;;;;26.41;100.00;99103.59;5050580;28;20950;-72
2022/09/17 11:45:33;;;;;;;30.98;17.80;;;;;;;26.13;100.00;99057.53;5048828;28;20239;-75
2022/09/17 11:48:06;;;;;;;7.22;3.85;;;;;;;25.78;100.00;99035.03;5044951;28;20215;-71